createdAt,value
2022-08-02T00:00:00.196Z,17.9
2022-08-02T00:05:00.166Z,17.8
2022-08-02T00:10:00.164Z,17.8
2022-08-02T00:15:00.183Z,17.7
2022-08-02T00:20:00.212Z,17.6
2022-08-02T00:25:00.166Z,17.5
2022-08-02T00:30:00.181Z,17.4
2022-08-02T00:35:00.159Z,17.4
2022-08-02T00:40:00.182Z,17.2
2022-08-02T00:45:00.173Z,17.2
2022-08-02T00:50:00.180Z,16.9
2022-08-02T00:55:00.181Z,16.7
2022-08-02T01:00:00.223Z,16.6
2022-08-02T01:05:00.172Z,16.5
2022-08-02T01:10:00.293Z,16.4
2022-08-02T01:15:00.192Z,16.4
2022-08-02T01:20:00.172Z,16.2
2022-08-02T01:25:00.174Z,16
2022-08-02T01:30:00.186Z,15.9
2022-08-02T01:35:00.176Z,15.8
2022-08-02T01:40:00.190Z,15.7
2022-08-02T01:45:00.168Z,15.6
2022-08-02T01:50:00.208Z,15.7
2022-08-02T01:55:00.163Z,15.6
2022-08-02T02:00:00.169Z,15.5
2022-08-02T02:05:00.435Z,15.4
2022-08-02T02:10:00.447Z,15.4
2022-08-02T02:15:00.195Z,15.3
2022-08-02T02:20:00.186Z,15.2
2022-08-02T02:25:00.158Z,15.2
2022-08-02T02:30:00.186Z,15.1
2022-08-02T02:35:00.172Z,15
2022-08-02T02:40:00.185Z,14.9
2022-08-02T02:45:00.163Z,14.9
2022-08-02T02:50:00.166Z,14.8
2022-08-02T02:55:00.175Z,14.7
2022-08-02T03:00:00.173Z,14.6
2022-08-02T03:05:00.161Z,14.7
2022-08-02T03:10:00.188Z,14.8
2022-08-02T03:15:00.168Z,14.8
2022-08-02T03:20:00.197Z,14.8
2022-08-02T03:25:00.167Z,14.8
2022-08-02T03:30:00.163Z,14.8
2022-08-02T03:35:00.156Z,14.8
2022-08-02T03:40:00.209Z,14.7
2022-08-02T03:45:03.752Z,14.5
2022-08-02T03:50:00.173Z,14.4
2022-08-02T03:55:00.164Z,14.2
2022-08-02T04:00:00.193Z,14.3
2022-08-02T04:05:00.162Z,14.4
2022-08-02T04:10:00.170Z,14.3
2022-08-02T04:15:00.169Z,14.2
2022-08-02T04:20:00.216Z,14.3
2022-08-02T04:25:00.169Z,14.2
2022-08-02T04:30:00.226Z,14.1
2022-08-02T04:35:19.251Z,14.1
2022-08-02T04:40:00.296Z,14.2
2022-08-02T04:45:00.333Z,14.4
2022-08-02T04:50:00.239Z,14.6
2022-08-02T04:55:00.174Z,14.8
2022-08-02T05:00:00.158Z,15
2022-08-02T05:05:00.172Z,15.2
2022-08-02T05:10:00.175Z,15.3
2022-08-02T05:15:00.163Z,15.4
2022-08-02T05:20:00.202Z,15.6
2022-08-02T05:25:00.167Z,15.7
2022-08-02T05:30:00.177Z,15.8
2022-08-02T05:35:00.168Z,16
2022-08-02T05:40:01.126Z,16.2
2022-08-02T05:45:00.171Z,16.4
2022-08-02T05:50:00.167Z,16.6
2022-08-02T05:55:00.172Z,16.8
2022-08-02T06:00:00.163Z,17
2022-08-02T06:05:00.198Z,17.2
2022-08-02T06:10:00.162Z,17.5
2022-08-02T06:15:00.533Z,17.8
2022-08-02T06:20:00.188Z,18
2022-08-02T06:25:00.160Z,18.1
2022-08-02T06:30:00.211Z,18.2
2022-08-02T06:35:00.229Z,18.4
2022-08-02T06:40:00.176Z,18.5
2022-08-02T06:45:00.171Z,18.7
2022-08-02T06:50:00.261Z,18.9
2022-08-02T06:55:00.308Z,19.1
2022-08-02T07:00:00.177Z,19.4
2022-08-02T07:05:00.185Z,19.6
2022-08-02T07:10:01.188Z,19.8
2022-08-02T07:15:00.190Z,20.1
2022-08-02T07:20:00.193Z,20.4
2022-08-02T07:25:00.208Z,20.6
2022-08-02T07:30:00.204Z,20.9
2022-08-02T07:35:00.170Z,21.2
2022-08-02T07:40:00.185Z,21.4
2022-08-02T07:45:00.175Z,21.6
2022-08-02T07:50:00.202Z,21.9
2022-08-02T07:55:00.168Z,22.1
2022-08-02T08:00:00.295Z,22.3
2022-08-02T08:05:00.176Z,22.7
2022-08-02T08:10:00.169Z,23.1
2022-08-02T08:15:00.195Z,23.5
2022-08-02T08:20:00.183Z,23.8
2022-08-02T08:25:00.181Z,23.5
2022-08-02T08:30:00.213Z,23.7
2022-08-02T08:35:00.164Z,23.9
2022-08-02T08:40:00.185Z,24.2
2022-08-02T08:45:00.169Z,24.1
2022-08-02T08:50:00.179Z,24.1
2022-08-02T08:55:00.176Z,24.2
2022-08-02T09:00:00.192Z,24.6
2022-08-02T09:05:00.175Z,24.9
2022-08-02T09:10:00.211Z,25.3
2022-08-02T09:15:00.178Z,25.7
2022-08-02T09:20:00.179Z,25.9
2022-08-02T09:25:00.168Z,26.2
2022-08-02T09:30:12.355Z,26
2022-08-02T09:35:00.169Z,26.4
2022-08-02T09:40:00.193Z,26.6
2022-08-02T09:45:00.177Z,26.7
2022-08-02T09:50:00.226Z,26.9
2022-08-02T09:55:00.173Z,26.9
2022-08-02T10:00:00.225Z,27.1
2022-08-02T10:05:00.193Z,27.6
2022-08-02T10:10:00.184Z,27.5
2022-08-02T10:15:00.177Z,27.5
2022-08-02T10:20:04.204Z,27.8
2022-08-02T10:25:00.171Z,28
2022-08-02T10:30:00.190Z,28.2
2022-08-02T10:35:02.686Z,28.4
2022-08-02T10:40:00.186Z,28.5
2022-08-02T10:45:00.168Z,28.4
2022-08-02T10:50:00.378Z,28.6
2022-08-02T10:55:00.164Z,28.9
2022-08-02T11:00:00.178Z,29.2
2022-08-02T11:05:00.181Z,29.2
2022-08-02T11:10:00.168Z,29.4
2022-08-02T11:15:00.177Z,29.4
2022-08-02T11:20:00.182Z,29.8
2022-08-02T11:25:00.190Z,29.7
2022-08-02T11:30:00.175Z,29.4
2022-08-02T11:35:00.181Z,29.5
2022-08-02T11:40:00.292Z,29.2
2022-08-02T11:45:00.180Z,29.6
2022-08-02T11:50:00.198Z,29.9
2022-08-02T11:55:00.177Z,29.9
2022-08-02T12:00:00.163Z,30.1
2022-08-02T12:05:00.188Z,30.2
2022-08-02T12:10:00.170Z,30.2
2022-08-02T12:15:00.180Z,30.5
2022-08-02T12:20:00.186Z,30.6
2022-08-02T12:25:00.174Z,31
2022-08-02T12:30:00.195Z,31.1
2022-08-02T12:35:00.184Z,31
2022-08-02T12:40:00.183Z,31.2
2022-08-02T12:45:02.733Z,31.3
2022-08-02T12:50:00.408Z,31.2
2022-08-02T12:55:00.169Z,31.6
2022-08-02T13:00:00.175Z,31.5
2022-08-02T13:05:00.167Z,30.6
2022-08-02T13:10:03.169Z,29.9
2022-08-02T13:15:00.180Z,29.7
2022-08-02T13:20:00.188Z,29.9
2022-08-02T13:25:00.178Z,30.2
2022-08-02T13:30:00.192Z,30.6
2022-08-02T13:35:00.175Z,30.8
2022-08-02T13:40:20.601Z,31.1
2022-08-02T13:45:00.188Z,31.1
2022-08-02T13:50:00.377Z,31.2
2022-08-02T13:55:00.174Z,31.2
2022-08-02T14:00:00.206Z,31.3
2022-08-02T14:05:00.185Z,31.4
2022-08-02T14:10:00.188Z,31.4
2022-08-02T14:15:00.177Z,30.9
2022-08-02T14:20:00.161Z,31
2022-08-02T14:25:08.882Z,31.1
2022-08-02T14:30:00.173Z,31.2
2022-08-02T14:35:00.178Z,31.2
2022-08-02T14:40:02.188Z,31.4
2022-08-02T14:45:00.188Z,31.1
2022-08-02T14:50:00.317Z,32.1
2022-08-02T14:55:00.253Z,33.8
2022-08-02T15:00:00.254Z,34.6
2022-08-02T15:05:00.217Z,34.6
2022-08-02T15:10:00.181Z,33.8
2022-08-02T15:15:00.281Z,33.4
2022-08-02T15:20:05.628Z,33.2
2022-08-02T15:25:00.188Z,34.3
2022-08-02T15:30:00.813Z,35.6
2022-08-02T15:35:00.206Z,34.1
2022-08-02T15:40:00.191Z,32.7
2022-08-02T15:45:00.195Z,32
2022-08-02T15:50:00.190Z,31.4
2022-08-02T15:55:06.789Z,31.4
2022-08-02T16:00:00.180Z,31.4
2022-08-02T16:05:00.188Z,31.3
2022-08-02T16:10:00.229Z,30.9
2022-08-02T16:15:00.250Z,30.5
2022-08-02T16:20:00.469Z,30.3
2022-08-02T16:25:00.221Z,29.7
2022-08-02T16:30:00.212Z,29.6
2022-08-02T16:35:08.985Z,29.7
2022-08-02T16:40:00.196Z,29.7
2022-08-02T16:45:00.200Z,29.6
2022-08-02T16:50:04.815Z,30.7
2022-08-02T16:55:00.168Z,32.9
2022-08-02T17:00:00.337Z,34.8
2022-08-02T17:05:00.166Z,37.1
2022-08-02T17:10:01.873Z,37.4
2022-08-02T17:15:00.860Z,35.1
2022-08-02T17:20:00.174Z,33.3
2022-08-02T17:25:00.171Z,32.4
2022-08-02T17:30:00.183Z,31.2
2022-08-02T17:35:03.960Z,30.5
2022-08-02T17:40:00.190Z,30.3
2022-08-02T17:45:07.038Z,29.8
2022-08-02T17:50:00.361Z,29
2022-08-02T17:55:00.165Z,28.4
2022-08-02T18:00:04.143Z,27.9
2022-08-02T18:05:00.167Z,27.5
2022-08-02T18:10:00.185Z,27.2
2022-08-02T18:15:00.176Z,27
2022-08-02T18:20:06.069Z,26.7
2022-08-02T18:25:00.180Z,26.4
2022-08-02T18:30:04.355Z,26.1
2022-08-02T18:35:00.167Z,25.6
2022-08-02T18:40:00.171Z,25.2
2022-08-02T18:45:00.165Z,24.9
2022-08-02T18:50:00.269Z,24.6
2022-08-02T18:55:00.196Z,24.3
2022-08-02T19:00:00.181Z,24.1
2022-08-02T19:05:00.172Z,23.8
2022-08-02T19:10:00.197Z,23.5
2022-08-02T19:15:00.160Z,23.2
2022-08-02T19:20:00.278Z,22.8
2022-08-02T19:25:01.626Z,22.5
2022-08-02T19:30:00.174Z,22.3
2022-08-02T19:35:00.187Z,22.1
2022-08-02T19:40:00.165Z,21.9
2022-08-02T19:45:00.164Z,21.7
2022-08-02T19:50:00.261Z,21.5
2022-08-02T19:56:00.224Z,21.3
2022-08-02T20:00:00.214Z,21.1
2022-08-02T20:05:00.177Z,21
2022-08-02T20:10:00.179Z,20.8
2022-08-02T20:15:00.166Z,20.8
2022-08-02T20:20:00.205Z,20.6
2022-08-02T20:25:00.165Z,20.6
2022-08-02T20:30:00.199Z,20.4
2022-08-02T20:35:00.171Z,20.2
2022-08-02T20:40:00.180Z,20.2
2022-08-02T20:45:00.162Z,20.1
2022-08-02T20:50:00.236Z,19.9
2022-08-02T20:55:00.269Z,19.8
2022-08-02T21:00:00.187Z,19.8
2022-08-02T21:05:00.171Z,19.6
2022-08-02T21:10:00.173Z,19.7
2022-08-02T21:15:00.171Z,19.7
2022-08-02T21:20:00.170Z,19.8
2022-08-02T21:25:00.173Z,19.6
2022-08-02T21:30:00.182Z,19.5
2022-08-02T21:35:00.161Z,19.4
2022-08-02T21:40:00.212Z,19.2
2022-08-02T21:45:00.170Z,19.1
2022-08-02T21:50:10.148Z,19.1
2022-08-02T21:55:00.180Z,19
2022-08-02T22:00:00.186Z,19
2022-08-02T22:05:02.711Z,19.1
2022-08-02T22:10:00.181Z,19.1
2022-08-02T22:15:00.182Z,19.1
2022-08-02T22:20:00.198Z,19.1
2022-08-02T22:25:00.162Z,18.9
2022-08-02T22:30:00.167Z,18.9
2022-08-02T22:35:00.176Z,18.8
2022-08-02T22:40:09.378Z,18.8
2022-08-02T22:45:00.192Z,18.6
2022-08-02T22:50:00.310Z,18.6
2022-08-02T22:55:00.180Z,18.6
2022-08-02T23:00:00.399Z,18.6
2022-08-02T23:05:00.189Z,18.6
2022-08-02T23:10:00.169Z,18.6
2022-08-02T23:15:00.172Z,18.6
2022-08-02T23:20:00.184Z,18.5
2022-08-02T23:25:00.199Z,18.5
2022-08-02T23:30:00.204Z,18.5
2022-08-02T23:35:00.164Z,18.5
2022-08-02T23:40:00.193Z,18.4
2022-08-02T23:45:00.171Z,18.4
2022-08-02T23:50:00.166Z,18.4
2022-08-02T23:55:00.169Z,18.4
